createdAt,value
2023-01-11T00:00:38.392Z,1005.64
2023-01-11T00:01:38.336Z,1005.60
2023-01-11T00:02:38.333Z,1005.54
2023-01-11T00:03:38.372Z,1005.57
2023-01-11T00:04:38.361Z,1005.51
2023-01-11T00:05:38.295Z,1005.53
2023-01-11T00:06:38.281Z,1005.48
2023-01-11T00:07:38.297Z,1005.44
2023-01-11T00:08:38.246Z,1005.46
2023-01-11T00:09:38.249Z,1005.45
2023-01-11T00:10:38.261Z,1005.38
2023-01-11T00:11:38.241Z,1005.43
2023-01-11T00:12:38.231Z,1005.48
2023-01-11T00:13:38.213Z,1005.51
2023-01-11T00:14:38.211Z,1005.49
2023-01-11T00:15:38.399Z,1005.49
2023-01-11T00:16:38.143Z,1005.51
2023-01-11T00:17:38.179Z,1005.41
2023-01-11T00:18:38.187Z,1005.43
2023-01-11T00:19:38.210Z,1005.45
2023-01-11T00:20:38.128Z,1005.43
2023-01-11T00:21:38.105Z,1005.44
2023-01-11T00:22:38.153Z,1005.44
2023-01-11T00:23:38.144Z,1005.38
2023-01-11T00:24:38.079Z,1005.39
2023-01-11T00:25:38.067Z,1005.45
2023-01-11T00:26:38.062Z,1005.50
2023-01-11T00:27:38.049Z,1005.53
2023-01-11T00:28:38.057Z,1005.55
2023-01-11T00:29:38.037Z,1005.57
2023-01-11T00:30:38.072Z,1005.51
2023-01-11T00:31:38.063Z,1005.49
2023-01-11T00:32:37.985Z,1005.47
2023-01-11T00:33:37.992Z,1005.50
2023-01-11T00:34:37.972Z,1005.49
2023-01-11T00:35:37.963Z,1005.50
2023-01-11T00:36:37.976Z,1005.49
2023-01-11T00:37:44.435Z,1005.39
2023-01-11T00:38:37.959Z,1005.42
2023-01-11T00:39:37.893Z,1005.46
2023-01-11T00:40:37.921Z,1005.44
2023-01-11T00:41:37.903Z,1005.37
2023-01-11T00:42:37.883Z,1005.36
2023-01-11T00:43:37.897Z,1005.21
2023-01-11T00:44:37.848Z,1005.33
2023-01-11T00:45:37.834Z,1005.16
2023-01-11T00:46:37.869Z,1005.12
2023-01-11T00:47:37.855Z,1005.15
2023-01-11T00:48:37.808Z,1005.09
2023-01-11T00:49:37.844Z,1005.13
2023-01-11T00:50:37.779Z,1005.08
2023-01-11T00:51:37.772Z,1005.04
2023-01-11T00:52:37.802Z,1005.08
2023-01-11T00:53:37.787Z,1005.02
2023-01-11T00:54:37.790Z,1005.04
2023-01-11T00:55:37.735Z,1005.01
2023-01-11T00:56:37.738Z,1005.00
2023-01-11T00:57:37.735Z,1005.01
2023-01-11T00:58:37.704Z,1004.97
2023-01-11T00:59:37.705Z,1004.88
2023-01-11T01:00:37.696Z,1004.84
2023-01-11T01:01:37.766Z,1004.80
2023-01-11T01:02:37.704Z,1004.81
2023-01-11T01:03:37.679Z,1004.79
2023-01-11T01:04:37.688Z,1004.80
2023-01-11T01:05:37.602Z,1004.74
2023-01-11T01:06:37.655Z,1004.82
2023-01-11T01:07:37.589Z,1004.84
2023-01-11T01:08:37.612Z,1004.87
2023-01-11T01:09:37.584Z,1004.89
2023-01-11T01:10:37.587Z,1004.87
2023-01-11T01:11:37.578Z,1004.84
2023-01-11T01:12:37.524Z,1004.76
2023-01-11T01:13:37.555Z,1004.84
2023-01-11T01:14:37.546Z,1004.85
2023-01-11T01:15:37.531Z,1004.81
2023-01-11T01:16:37.526Z,1004.89
2023-01-11T01:17:44.018Z,1004.81
2023-01-11T01:18:37.489Z,1004.82
2023-01-11T01:19:37.481Z,1004.77
2023-01-11T01:20:37.452Z,1004.79
2023-01-11T01:21:37.459Z,1004.81
2023-01-11T01:22:37.513Z,1004.84
2023-01-11T01:23:37.421Z,1004.84
2023-01-11T01:24:37.419Z,1004.79
2023-01-11T01:25:37.402Z,1004.85
2023-01-11T01:26:38.291Z,1004.76
2023-01-11T01:27:37.372Z,1004.89
2023-01-11T01:28:37.356Z,1004.77
2023-01-11T01:29:37.408Z,1004.73
2023-01-11T01:30:37.347Z,1004.75
2023-01-11T01:31:37.358Z,1004.70
2023-01-11T01:32:37.391Z,1004.72
2023-01-11T01:33:37.308Z,1004.73
2023-01-11T01:34:37.305Z,1004.78
2023-01-11T01:35:37.285Z,1004.75
2023-01-11T01:36:37.310Z,1004.75
2023-01-11T01:37:43.781Z,1004.76
2023-01-11T01:38:37.257Z,1004.76
2023-01-11T01:39:37.250Z,1004.73
2023-01-11T01:40:37.244Z,1004.75
2023-01-11T01:41:37.241Z,1004.70
2023-01-11T01:42:37.225Z,1004.74
2023-01-11T01:43:37.225Z,1004.72
2023-01-11T01:44:37.211Z,1004.75
2023-01-11T01:45:37.204Z,1004.73
2023-01-11T01:46:37.199Z,1004.73
2023-01-11T01:47:37.156Z,1004.80
2023-01-11T01:48:37.136Z,1004.81
2023-01-11T01:49:37.152Z,1004.81
2023-01-11T01:50:37.129Z,1004.80
2023-01-11T01:51:37.113Z,1004.74
2023-01-11T01:52:37.112Z,1004.78
2023-01-11T01:53:37.092Z,1004.78
2023-01-11T01:54:37.676Z,1004.76
2023-01-11T01:55:37.314Z,1004.77
2023-01-11T01:56:37.059Z,1004.82
2023-01-11T01:57:37.074Z,1004.75
2023-01-11T01:58:37.025Z,1004.78
2023-01-11T01:59:37.069Z,1004.73
2023-01-11T02:00:37.043Z,1004.71
2023-01-11T02:01:37.046Z,1004.65
2023-01-11T02:02:37.035Z,1004.70
2023-01-11T02:03:37.049Z,1004.67
2023-01-11T02:04:36.978Z,1004.68
2023-01-11T02:05:36.976Z,1004.67
2023-01-11T02:06:36.980Z,1004.65
2023-01-11T02:07:36.947Z,1004.55
2023-01-11T02:08:36.949Z,1004.52
2023-01-11T02:09:36.913Z,1004.49
2023-01-11T02:10:36.902Z,1004.56
2023-01-11T02:11:36.900Z,1004.53
2023-01-11T02:12:36.936Z,1004.58
2023-01-11T02:13:36.861Z,1004.52
2023-01-11T02:14:36.864Z,1004.50
2023-01-11T02:15:36.901Z,1004.51
2023-01-11T02:16:36.836Z,1004.47
2023-01-11T02:17:36.831Z,1004.41
2023-01-11T02:18:36.812Z,1004.43
2023-01-11T02:19:36.817Z,1004.44
2023-01-11T02:20:36.824Z,1004.39
2023-01-11T02:21:36.815Z,1004.40
2023-01-11T02:22:36.814Z,1004.35
2023-01-11T02:23:36.774Z,1004.39
2023-01-11T02:24:36.769Z,1004.41
2023-01-11T02:25:36.773Z,1004.37
2023-01-11T02:26:36.747Z,1004.32
2023-01-11T02:27:43.234Z,1004.28
2023-01-11T02:28:36.706Z,1004.27
2023-01-11T02:29:36.708Z,1004.29
2023-01-11T02:30:36.691Z,1004.28
2023-01-11T02:31:36.772Z,1004.18
2023-01-11T02:32:36.663Z,1004.23
2023-01-11T02:33:36.665Z,1004.23
2023-01-11T02:34:36.677Z,1004.25
2023-01-11T02:35:36.626Z,1004.24
2023-01-11T02:36:36.636Z,1004.18
2023-01-11T02:37:36.592Z,1004.22
2023-01-11T02:38:36.596Z,1004.22
2023-01-11T02:39:36.571Z,1004.19
2023-01-11T02:40:36.579Z,1004.17
2023-01-11T02:41:36.549Z,1004.16
2023-01-11T02:42:36.580Z,1004.13
2023-01-11T02:43:36.568Z,1004.06
2023-01-11T02:44:36.539Z,1004.03
2023-01-11T02:45:36.526Z,1004.01
2023-01-11T02:46:36.554Z,1004.07
2023-01-11T02:47:43.023Z,1004.05
2023-01-11T02:48:36.509Z,1004.01
2023-01-11T02:49:36.489Z,1004.03
2023-01-11T02:50:36.476Z,1004.10
2023-01-11T02:51:36.496Z,1004.05
2023-01-11T02:52:36.444Z,1004.03
2023-01-11T02:53:36.463Z,1004.01
2023-01-11T02:54:36.433Z,1004.00
2023-01-11T02:55:42.966Z,1004.01
2023-01-11T02:56:36.390Z,1003.99
2023-01-11T02:57:36.399Z,1004.02
2023-01-11T02:58:36.361Z,1004.03
2023-01-11T02:59:36.366Z,1004.00
2023-01-11T03:00:36.365Z,1003.98
2023-01-11T03:01:36.402Z,1003.98
2023-01-11T03:02:36.392Z,1004.02
2023-01-11T03:03:36.350Z,1004.02
2023-01-11T03:04:36.360Z,1003.98
2023-01-11T03:05:36.349Z,1004.02
2023-01-11T03:06:36.352Z,1004.01
2023-01-11T03:07:42.818Z,1003.95
2023-01-11T03:08:36.274Z,1003.93
2023-01-11T03:09:36.261Z,1003.86
2023-01-11T03:10:36.251Z,1003.90
2023-01-11T03:11:36.288Z,1003.88
2023-01-11T03:12:36.276Z,1003.83
2023-01-11T03:13:36.223Z,1003.85
2023-01-11T03:14:36.208Z,1003.80
2023-01-11T03:15:36.227Z,1003.73
2023-01-11T03:16:36.196Z,1003.73
2023-01-11T03:17:36.183Z,1003.67
2023-01-11T03:18:36.143Z,1003.60
2023-01-11T03:19:36.165Z,1003.58
2023-01-11T03:20:36.159Z,1003.68
2023-01-11T03:21:36.138Z,1003.56
2023-01-11T03:22:36.129Z,1003.55
2023-01-11T03:23:36.111Z,1003.58
2023-01-11T03:24:36.082Z,1003.49
2023-01-11T03:25:36.074Z,1003.47
2023-01-11T03:26:36.054Z,1003.48
2023-01-11T03:27:42.608Z,1003.49
2023-01-11T03:28:36.053Z,1003.43
2023-01-11T03:29:36.033Z,1003.43
2023-01-11T03:30:36.014Z,1003.44
2023-01-11T03:31:36.082Z,1003.40
2023-01-11T03:32:36.020Z,1003.40
2023-01-11T03:33:35.996Z,1003.37
2023-01-11T03:34:35.988Z,1003.38
2023-01-11T03:35:36.888Z,1003.41
2023-01-11T03:36:36.032Z,1003.39
2023-01-11T03:37:35.952Z,1003.40
2023-01-11T03:38:35.930Z,1003.41
2023-01-11T03:39:35.949Z,1003.36
2023-01-11T03:40:35.928Z,1003.46
2023-01-11T03:41:35.913Z,1003.43
2023-01-11T03:42:35.894Z,1003.44
2023-01-11T03:43:35.892Z,1003.37
2023-01-11T03:44:35.905Z,1003.46
2023-01-11T03:45:35.915Z,1003.39
2023-01-11T03:46:35.896Z,1003.39
2023-01-11T03:47:42.351Z,1003.35
2023-01-11T03:48:35.862Z,1003.31
2023-01-11T03:49:35.814Z,1003.36
2023-01-11T03:50:35.805Z,1003.40
2023-01-11T03:51:35.817Z,1003.30
2023-01-11T03:52:35.835Z,1003.34
2023-01-11T03:53:35.781Z,1003.41
2023-01-11T03:54:35.771Z,1003.31
2023-01-11T03:55:35.739Z,1003.37
2023-01-11T03:56:35.721Z,1003.36
2023-01-11T03:57:35.739Z,1003.38
2023-01-11T03:58:35.720Z,1003.34
2023-01-11T03:59:35.724Z,1003.32
2023-01-11T04:00:35.729Z,1003.30
2023-01-11T04:01:35.699Z,1003.31
2023-01-11T04:02:35.682Z,1003.36
2023-01-11T04:03:35.683Z,1003.30
2023-01-11T04:04:35.658Z,1003.23
2023-01-11T04:05:35.842Z,1003.24
2023-01-11T04:06:35.646Z,1003.25
2023-01-11T04:07:35.702Z,1003.20
2023-01-11T04:08:35.624Z,1003.27
2023-01-11T04:09:38.136Z,1003.19
2023-01-11T04:10:35.601Z,1003.11
2023-01-11T04:11:35.584Z,1003.17
2023-01-11T04:12:35.566Z,1003.12
2023-01-11T04:13:35.540Z,1003.11
2023-01-11T04:14:35.553Z,1003.09
2023-01-11T04:15:35.535Z,1003.17
2023-01-11T04:16:35.570Z,1003.15
2023-01-11T04:17:35.532Z,1003.10
2023-01-11T04:18:35.522Z,1003.10
2023-01-11T04:19:35.500Z,1003.14
2023-01-11T04:20:35.494Z,1003.13
2023-01-11T04:21:35.481Z,1003.09
2023-01-11T04:22:35.473Z,1003.15
2023-01-11T04:23:35.451Z,1003.14
2023-01-11T04:24:35.639Z,1003.11
2023-01-11T04:25:35.415Z,1003.15
2023-01-11T04:26:35.402Z,1003.14
2023-01-11T04:27:35.378Z,1003.11
2023-01-11T04:28:35.415Z,1003.11
2023-01-11T04:29:35.380Z,1003.06
2023-01-11T04:30:35.391Z,1003.08
2023-01-11T04:31:35.344Z,1003.10
2023-01-11T04:32:35.333Z,1003.04
2023-01-11T04:33:35.331Z,1003.03
2023-01-11T04:34:35.311Z,1003.04
2023-01-11T04:35:35.319Z,1002.99
2023-01-11T04:36:35.325Z,1003.03
2023-01-11T04:37:42.428Z,1003.02
2023-01-11T04:38:35.294Z,1003.00
2023-01-11T04:39:35.273Z,1003.04
2023-01-11T04:40:35.277Z,1003.04
2023-01-11T04:41:35.252Z,1002.99
2023-01-11T04:42:35.260Z,1003.01
2023-01-11T04:43:35.237Z,1003.09
2023-01-11T04:44:35.216Z,1003.07
2023-01-11T04:45:35.863Z,1003.05
2023-01-11T04:46:35.203Z,1003.01
2023-01-11T04:47:35.167Z,1003.06
2023-01-11T04:48:35.178Z,1003.04
2023-01-11T04:49:35.188Z,1003.04
2023-01-11T04:50:35.228Z,1003.09
2023-01-11T04:51:35.131Z,1003.05
2023-01-11T04:52:35.114Z,1003.11
2023-01-11T04:53:35.096Z,1003.07
2023-01-11T04:54:35.092Z,1003.13
2023-01-11T04:55:35.124Z,1003.15
2023-01-11T04:56:35.077Z,1003.09
2023-01-11T04:57:35.074Z,1003.11
2023-01-11T04:58:37.890Z,1003.10
2023-01-11T04:59:35.056Z,1003.09
2023-01-11T05:00:35.029Z,1003.08
2023-01-11T05:01:35.017Z,1003.12
2023-01-11T05:02:35.008Z,1003.11
2023-01-11T05:03:34.995Z,1003.06
2023-01-11T05:04:34.990Z,1003.08
2023-01-11T05:05:34.966Z,1003.04
2023-01-11T05:06:35.017Z,1003.04
2023-01-11T05:07:34.972Z,1003.00
2023-01-11T05:08:35.038Z,1002.97
2023-01-11T05:09:34.967Z,1003.00
2023-01-11T05:10:34.930Z,1002.97
2023-01-11T05:11:34.924Z,1002.96
2023-01-11T05:12:34.897Z,1002.91
2023-01-11T05:13:34.908Z,1002.89
2023-01-11T05:14:34.871Z,1002.89
2023-01-11T05:15:34.890Z,1002.83
2023-01-11T05:16:34.931Z,1002.86
2023-01-11T05:17:34.863Z,1002.90
2023-01-11T05:18:34.904Z,1002.85
2023-01-11T05:19:34.842Z,1002.88
2023-01-11T05:20:34.800Z,1002.88
2023-01-11T05:21:34.824Z,1002.92
2023-01-11T05:22:34.779Z,1002.87
2023-01-11T05:23:34.798Z,1002.89
2023-01-11T05:24:34.751Z,1002.88
2023-01-11T05:25:41.280Z,1002.89
2023-01-11T05:26:35.055Z,1002.88
2023-01-11T05:27:41.287Z,1002.85
2023-01-11T05:28:34.739Z,1002.87
2023-01-11T05:29:34.706Z,1002.88
2023-01-11T05:30:34.704Z,1002.85
2023-01-11T05:31:34.773Z,1002.91
2023-01-11T05:32:34.693Z,1002.83
2023-01-11T05:33:34.699Z,1002.87
2023-01-11T05:34:34.657Z,1002.84
2023-01-11T05:35:34.669Z,1002.86
2023-01-11T05:36:34.624Z,1002.80
2023-01-11T05:37:34.683Z,1002.79
2023-01-11T05:38:34.617Z,1002.83
2023-01-11T05:39:34.680Z,1002.84
2023-01-11T05:40:34.598Z,1002.82
2023-01-11T05:41:34.595Z,1002.84
2023-01-11T05:42:34.562Z,1002.82
2023-01-11T05:43:34.571Z,1002.79
2023-01-11T05:44:34.546Z,1002.76
2023-01-11T05:45:34.705Z,1002.73
2023-01-11T05:46:34.553Z,1002.75
2023-01-11T05:47:34.545Z,1002.74
2023-01-11T05:48:34.524Z,1002.75
2023-01-11T05:49:34.490Z,1002.69
2023-01-11T05:50:34.465Z,1002.68
2023-01-11T05:51:37.020Z,1002.67
2023-01-11T05:52:34.455Z,1002.75
2023-01-11T05:53:34.470Z,1002.69
2023-01-11T05:54:34.448Z,1002.67
2023-01-11T05:55:35.026Z,1002.65
2023-01-11T05:56:34.421Z,1002.61
2023-01-11T05:57:34.411Z,1002.65
2023-01-11T05:58:34.406Z,1002.58
2023-01-11T05:59:34.387Z,1002.60
2023-01-11T06:00:34.371Z,1002.58
2023-01-11T06:01:34.370Z,1002.61
2023-01-11T06:02:34.480Z,1002.59
2023-01-11T06:03:34.360Z,1002.60
2023-01-11T06:04:34.386Z,1002.63
2023-01-11T06:05:34.335Z,1002.60
2023-01-11T06:06:34.351Z,1002.58
2023-01-11T06:07:34.277Z,1002.64
2023-01-11T06:08:34.280Z,1002.64
2023-01-11T06:09:34.276Z,1002.60
2023-01-11T06:10:34.346Z,1002.59
2023-01-11T06:11:34.234Z,1002.59
2023-01-11T06:12:34.249Z,1002.56
2023-01-11T06:13:34.248Z,1002.56
2023-01-11T06:14:35.900Z,1002.51
2023-01-11T06:15:34.211Z,1002.52
2023-01-11T06:16:34.346Z,1002.52
2023-01-11T06:17:34.167Z,1002.53
2023-01-11T06:18:34.168Z,1002.55
2023-01-11T06:19:34.185Z,1002.52
2023-01-11T06:20:34.161Z,1002.54
2023-01-11T06:21:34.183Z,1002.52
2023-01-11T06:22:34.134Z,1002.47
2023-01-11T06:23:34.118Z,1002.45
2023-01-11T06:24:34.112Z,1002.43
2023-01-11T06:25:34.124Z,1002.45
2023-01-11T06:26:34.088Z,1002.41
2023-01-11T06:27:34.081Z,1002.44
2023-01-11T06:28:34.060Z,1002.48
2023-01-11T06:29:34.050Z,1002.45
2023-01-11T06:30:34.127Z,1002.43
2023-01-11T06:31:34.042Z,1002.49
2023-01-11T06:32:34.030Z,1002.49
2023-01-11T06:33:34.019Z,1002.48
2023-01-11T06:34:33.998Z,1002.44
2023-01-11T06:35:33.984Z,1002.47
2023-01-11T06:36:33.969Z,1002.44
2023-01-11T06:37:33.956Z,1002.42
2023-01-11T06:38:33.954Z,1002.49
2023-01-11T06:39:33.952Z,1002.47
2023-01-11T06:40:33.919Z,1002.53
2023-01-11T06:41:33.991Z,1002.54
2023-01-11T06:42:33.938Z,1002.57
2023-01-11T06:43:33.899Z,1002.57
2023-01-11T06:44:33.898Z,1002.52
2023-01-11T06:45:33.884Z,1002.54
2023-01-11T06:46:33.984Z,1002.53
2023-01-11T06:47:33.862Z,1002.54
2023-01-11T06:48:33.854Z,1002.50
2023-01-11T06:49:33.842Z,1002.52
2023-01-11T06:50:33.855Z,1002.52
2023-01-11T06:51:33.800Z,1002.51
2023-01-11T06:52:33.816Z,1002.51
2023-01-11T06:53:33.774Z,1002.54
2023-01-11T06:54:33.763Z,1002.53
2023-01-11T06:55:33.749Z,1002.54
2023-01-11T06:56:33.801Z,1002.56
2023-01-11T06:57:33.731Z,1002.61
2023-01-11T06:58:33.735Z,1002.57
2023-01-11T06:59:33.731Z,1002.62
2023-01-11T07:00:33.691Z,1002.62
2023-01-11T07:01:33.852Z,1002.63
2023-01-11T07:02:33.709Z,1002.64
2023-01-11T07:03:33.665Z,1002.63
2023-01-11T07:04:33.680Z,1002.72
2023-01-11T07:05:33.713Z,1002.70
2023-01-11T07:06:33.624Z,1002.69
2023-01-11T07:07:33.861Z,1002.65
2023-01-11T07:08:33.652Z,1002.72
2023-01-11T07:09:33.620Z,1002.75
2023-01-11T07:10:33.601Z,1002.75
2023-01-11T07:11:33.581Z,1002.78
2023-01-11T07:12:33.631Z,1002.72
2023-01-11T07:13:33.589Z,1002.84
2023-01-11T07:14:33.561Z,1002.77
2023-01-11T07:15:34.594Z,1002.73
2023-01-11T07:16:33.537Z,1002.78
2023-01-11T07:17:33.550Z,1002.76
2023-01-11T07:18:33.513Z,1002.75
2023-01-11T07:19:33.538Z,1002.73
2023-01-11T07:20:33.477Z,1002.77
2023-01-11T07:21:33.519Z,1002.83
2023-01-11T07:22:33.492Z,1002.86
2023-01-11T07:23:33.456Z,1002.86
2023-01-11T07:24:33.464Z,1002.91
2023-01-11T07:25:33.459Z,1002.81
2023-01-11T07:26:33.417Z,1002.84
2023-01-11T07:27:39.930Z,1002.80
2023-01-11T07:28:33.812Z,1002.84
2023-01-11T07:29:33.558Z,1002.85
2023-01-11T07:30:44.603Z,1002.83
2023-01-11T07:31:33.507Z,1002.85
2023-01-11T07:32:33.361Z,1002.92
2023-01-11T07:33:33.349Z,1002.89
2023-01-11T07:34:33.336Z,1002.94
2023-01-11T07:35:33.326Z,1002.92
2023-01-11T07:36:33.310Z,1002.98
2023-01-11T07:37:33.323Z,1003.03
2023-01-11T07:38:33.301Z,1003.04
2023-01-11T07:39:43.140Z,1003.04
2023-01-11T07:40:33.310Z,1003.10
2023-01-11T07:41:33.288Z,1003.11
2023-01-11T07:42:33.243Z,1003.10
2023-01-11T07:43:33.295Z,1003.09
2023-01-11T07:44:33.224Z,1003.06
2023-01-11T07:45:44.537Z,1003.03
2023-01-11T07:46:34.389Z,1003.05
2023-01-11T07:47:33.218Z,1003.05
2023-01-11T07:48:33.185Z,1003.13
2023-01-11T07:49:33.162Z,1003.10
2023-01-11T07:50:33.179Z,1003.17
2023-01-11T07:51:33.444Z,1003.13
2023-01-11T07:52:33.147Z,1003.20
2023-01-11T07:53:33.145Z,1003.24
2023-01-11T07:54:33.126Z,1003.26
2023-01-11T07:55:33.131Z,1003.31
2023-01-11T07:56:33.114Z,1003.33
2023-01-11T07:57:33.072Z,1003.37
2023-01-11T07:58:33.089Z,1003.38
2023-01-11T07:59:34.509Z,1003.46
2023-01-11T08:00:33.071Z,1003.46
2023-01-11T08:01:33.042Z,1003.50
2023-01-11T08:02:33.126Z,1003.48
2023-01-11T08:03:33.233Z,1003.52
2023-01-11T08:04:33.266Z,1003.55
2023-01-11T08:05:33.005Z,1003.54
2023-01-11T08:06:33.010Z,1003.61
2023-01-11T08:07:32.968Z,1003.58
2023-01-11T08:08:32.964Z,1003.58
2023-01-11T08:09:32.961Z,1003.65
2023-01-11T08:10:32.939Z,1003.67
2023-01-11T08:11:35.186Z,1003.67
2023-01-11T08:12:32.910Z,1003.61
2023-01-11T08:13:32.917Z,1003.70
2023-01-11T08:14:32.931Z,1003.64
2023-01-11T08:15:32.983Z,1003.66
2023-01-11T08:16:32.915Z,1003.68
2023-01-11T08:17:32.849Z,1003.72
2023-01-11T08:18:32.893Z,1003.72
2023-01-11T08:19:32.847Z,1003.74
2023-01-11T08:20:32.859Z,1003.70
2023-01-11T08:21:32.849Z,1003.69
2023-01-11T08:22:32.867Z,1003.78
2023-01-11T08:23:32.812Z,1003.80
2023-01-11T08:24:32.789Z,1003.81
2023-01-11T08:25:32.759Z,1003.85
2023-01-11T08:26:32.750Z,1003.83
2023-01-11T08:27:40.696Z,1003.82
2023-01-11T08:28:32.874Z,1003.78
2023-01-11T08:29:32.753Z,1003.80
2023-01-11T08:30:33.648Z,1003.78
2023-01-11T08:31:32.705Z,1003.81
2023-01-11T08:32:33.616Z,1003.81
2023-01-11T08:33:32.747Z,1003.84
2023-01-11T08:34:34.497Z,1003.76
2023-01-11T08:35:32.681Z,1003.80
2023-01-11T08:36:32.647Z,1003.79
2023-01-11T08:37:32.649Z,1003.86
2023-01-11T08:38:32.656Z,1003.86
2023-01-11T08:39:32.634Z,1003.90
2023-01-11T08:40:32.641Z,1003.93
2023-01-11T08:41:32.604Z,1003.94
2023-01-11T08:42:32.630Z,1003.96
2023-01-11T08:43:32.583Z,1003.98
2023-01-11T08:44:34.618Z,1004.01
2023-01-11T08:46:43.391Z,1003.99
2023-01-11T08:47:44.267Z,1004.00
2023-01-11T08:48:44.243Z,1003.97
2023-01-11T08:49:44.207Z,1004.01
2023-01-11T08:50:44.411Z,1003.95
2023-01-11T08:51:44.584Z,1004.01
2023-01-11T08:52:44.221Z,1004.01
2023-01-11T08:53:44.171Z,1004.00
2023-01-11T08:54:44.175Z,1003.97
2023-01-11T08:55:44.146Z,1004.04
2023-01-11T08:56:44.148Z,1004.07
2023-01-11T08:57:44.143Z,1004.06
2023-01-11T08:58:44.132Z,1004.07
2023-01-11T08:59:44.121Z,1004.09
2023-01-11T09:00:44.342Z,1004.12
2023-01-11T09:01:44.816Z,1004.17
2023-01-11T09:02:44.162Z,1004.12
2023-01-11T09:03:44.088Z,1004.17
2023-01-11T09:04:44.269Z,1004.18
2023-01-11T09:05:44.058Z,1004.19
2023-01-11T09:06:44.032Z,1004.20
2023-01-11T09:07:50.600Z,1004.26
2023-01-11T09:08:44.025Z,1004.28
2023-01-11T09:09:44.005Z,1004.30
2023-01-11T09:10:44.019Z,1004.27
2023-01-11T09:11:43.997Z,1004.31
2023-01-11T09:12:43.979Z,1004.31
2023-01-11T09:13:43.973Z,1004.30
2023-01-11T09:14:43.978Z,1004.34
2023-01-11T09:15:43.942Z,1004.38
2023-01-11T09:16:43.989Z,1004.38
2023-01-11T09:17:43.932Z,1004.38
2023-01-11T09:18:43.908Z,1004.37
2023-01-11T09:19:43.956Z,1004.40
2023-01-11T09:20:43.875Z,1004.36
2023-01-11T09:21:43.873Z,1004.36
2023-01-11T09:22:43.864Z,1004.37
2023-01-11T09:23:43.828Z,1004.34
2023-01-11T09:24:43.835Z,1004.31
2023-01-11T09:25:43.810Z,1004.31
2023-01-11T09:26:43.882Z,1004.33
2023-01-11T09:27:51.506Z,1004.35
2023-01-11T09:28:43.985Z,1004.32
2023-01-11T09:29:43.826Z,1004.36
2023-01-11T09:30:43.756Z,1004.29
2023-01-11T09:31:43.771Z,1004.31
2023-01-11T09:32:43.768Z,1004.37
2023-01-11T09:33:43.947Z,1004.32
2023-01-11T09:34:45.301Z,1004.37
2023-01-11T09:35:43.710Z,1004.35
2023-01-11T09:36:43.715Z,1004.31
2023-01-11T09:37:44.302Z,1004.33
2023-01-11T09:38:45.042Z,1004.33
2023-01-11T09:39:43.649Z,1004.36
2023-01-11T09:40:43.664Z,1004.36
2023-01-11T09:41:44.747Z,1004.38
2023-01-11T09:42:43.635Z,1004.35
2023-01-11T09:43:43.648Z,1004.34
2023-01-11T09:44:44.450Z,1004.39
2023-01-11T09:45:43.786Z,1004.34
2023-01-11T09:46:43.685Z,1004.32
2023-01-11T09:47:50.202Z,1004.25
2023-01-11T09:48:43.588Z,1004.24
2023-01-11T09:49:43.748Z,1004.25
2023-01-11T09:50:43.560Z,1004.33
2023-01-11T09:51:43.535Z,1004.33
2023-01-11T09:52:43.548Z,1004.41
2023-01-11T09:53:43.540Z,1004.31
2023-01-11T09:54:43.510Z,1004.31
2023-01-11T09:55:43.527Z,1004.32
2023-01-11T09:56:43.514Z,1004.35
2023-01-11T09:57:43.540Z,1004.37
2023-01-11T09:58:43.451Z,1004.35
2023-01-11T09:59:43.421Z,1004.37
2023-01-11T10:00:43.474Z,1004.43
2023-01-11T10:01:43.465Z,1004.44
2023-01-11T10:02:43.508Z,1004.44
2023-01-11T10:03:43.401Z,1004.49
2023-01-11T10:04:43.965Z,1004.55
2023-01-11T10:05:43.510Z,1004.59
2023-01-11T10:06:43.580Z,1004.57
2023-01-11T10:07:43.378Z,1004.53
2023-01-11T10:18:23.173Z,1004.53
2023-01-11T10:18:59.336Z,1004.67
2023-01-11T10:19:34.936Z,1004.74
2023-01-11T10:19:48.983Z,1004.71
2023-01-11T10:20:48.940Z,1004.71
2023-01-11T10:21:48.916Z,1004.75
2023-01-11T10:22:48.903Z,1004.74
2023-01-11T10:23:48.897Z,1004.75
2023-01-11T10:24:48.863Z,1004.77
2023-01-11T10:25:48.899Z,1004.82
2023-01-11T10:26:48.934Z,1004.85
2023-01-11T10:27:48.851Z,1004.89
2023-01-11T10:28:48.826Z,1004.91
2023-01-11T10:29:48.811Z,1004.87
2023-01-11T10:30:48.789Z,1004.91
2023-01-11T10:31:48.932Z,1004.84
2023-01-11T10:32:48.767Z,1004.83
2023-01-11T10:33:48.815Z,1004.97
2023-01-11T10:34:48.969Z,1005.05
2023-01-11T10:35:48.764Z,1005.07
2023-01-11T10:36:48.737Z,1005.15
2023-01-11T10:37:56.659Z,1005.15
2023-01-11T10:38:48.698Z,1005.30
2023-01-11T10:39:48.730Z,1005.27
2023-01-11T10:40:48.702Z,1005.26
2023-01-11T10:41:48.698Z,1005.23
2023-01-11T10:42:48.678Z,1005.27
2023-01-11T10:43:48.650Z,1005.26
2023-01-11T10:44:48.648Z,1005.20
2023-01-11T10:45:48.696Z,1005.27
2023-01-11T10:46:48.621Z,1005.28
2023-01-11T10:47:48.624Z,1005.39
2023-01-11T10:48:49.406Z,1005.46
2023-01-11T10:49:48.597Z,1005.36
2023-01-11T10:50:48.561Z,1005.29
2023-01-11T10:51:48.588Z,1005.31
2023-01-11T10:52:48.556Z,1005.27
2023-01-11T10:53:48.556Z,1005.32
2023-01-11T10:54:49.100Z,1005.27
2023-01-11T10:55:48.527Z,1005.24
2023-01-11T10:57:02.967Z,1005.10
2023-01-11T10:58:00.310Z,1005.16
2023-01-11T10:58:48.577Z,1005.20
2023-01-11T10:59:48.479Z,1005.15
2023-01-11T11:00:48.539Z,1005.14
2023-01-11T11:01:48.477Z,1005.16
2023-01-11T11:02:48.459Z,1005.13
2023-01-11T11:03:48.461Z,1005.18
2023-01-11T11:04:48.413Z,1005.18
2023-01-11T11:05:48.402Z,1005.22
2023-01-11T11:06:48.404Z,1005.21
2023-01-11T11:07:54.909Z,1005.16
2023-01-11T11:08:48.404Z,1005.20
2023-01-11T11:09:48.368Z,1005.15
2023-01-11T11:10:48.344Z,1005.15
2023-01-11T11:11:48.374Z,1005.16
2023-01-11T11:12:48.335Z,1005.15
2023-01-11T11:13:48.337Z,1005.17
2023-01-11T11:14:48.324Z,1005.23
2023-01-11T11:15:48.295Z,1005.27
2023-01-11T11:16:48.272Z,1005.29
2023-01-11T11:17:48.268Z,1005.27
2023-01-11T11:18:48.272Z,1005.26
2023-01-11T11:19:48.328Z,1005.32
2023-01-11T11:20:48.252Z,1005.26
2023-01-11T11:21:48.229Z,1005.32
2023-01-11T11:22:48.224Z,1005.30
2023-01-11T11:23:48.222Z,1005.32
2023-01-11T11:24:48.207Z,1005.29
2023-01-11T11:25:48.408Z,1005.29
2023-01-11T11:26:48.205Z,1005.28
2023-01-11T11:27:55.469Z,1005.21
2023-01-11T11:28:48.160Z,1005.27
2023-01-11T11:29:48.812Z,1005.30
2023-01-11T11:30:48.379Z,1005.34
2023-01-11T11:31:48.973Z,1005.36
2023-01-11T11:32:48.148Z,1005.37
2023-01-11T11:33:48.112Z,1005.36
2023-01-11T11:34:48.101Z,1005.39
2023-01-11T11:35:48.082Z,1005.46
2023-01-11T11:36:48.043Z,1005.38
2023-01-11T11:37:48.045Z,1005.37
2023-01-11T11:38:48.040Z,1005.38
2023-01-11T11:39:48.247Z,1005.36
2023-01-11T11:40:48.019Z,1005.34
2023-01-11T11:41:48.007Z,1005.40
2023-01-11T11:42:48.003Z,1005.44
2023-01-11T11:43:48.015Z,1005.50
2023-01-11T11:44:47.969Z,1005.49
2023-01-11T11:45:48.211Z,1005.46
2023-01-11T11:46:47.940Z,1005.46
2023-01-11T11:47:47.923Z,1005.49
2023-01-11T11:48:47.924Z,1005.55
2023-01-11T11:49:47.924Z,1005.55
2023-01-11T11:50:49.188Z,1005.53
2023-01-11T11:51:47.883Z,1005.53
2023-01-11T11:52:47.884Z,1005.55
2023-01-11T11:53:47.880Z,1005.53
2023-01-11T11:54:47.853Z,1005.56
2023-01-11T11:55:47.859Z,1005.56
2023-01-11T11:56:47.827Z,1005.53
2023-01-11T11:57:47.832Z,1005.58
2023-01-11T11:58:47.819Z,1005.62
2023-01-11T11:59:47.798Z,1005.60
2023-01-11T12:00:47.802Z,1005.60
2023-01-11T12:01:47.857Z,1005.58
2023-01-11T12:02:47.792Z,1005.53
2023-01-11T12:03:47.737Z,1005.62
2023-01-11T12:04:47.843Z,1005.60
2023-01-11T12:05:47.745Z,1005.57
2023-01-11T12:06:49.246Z,1005.51
2023-01-11T12:07:54.636Z,1005.52
2023-01-11T12:08:47.695Z,1005.53
2023-01-11T12:09:47.669Z,1005.57
2023-01-11T12:10:47.730Z,1005.56
2023-01-11T12:11:47.674Z,1005.61
2023-01-11T12:12:47.673Z,1005.62
2023-01-11T12:13:47.646Z,1005.64
2023-01-11T12:14:47.642Z,1005.58